Time;durP1;ratioP1;P1;durP2;ratioP2;P2;SDS_P1;SDS_P2;PMS_P1;PMS_P2;Temp;Humidity;BMP_temperature;BMP_pressure;BME280_temperature;BME280_humidity;BME280_pressure;Samples;Min_cycle;Max_cycle;Signal;HPM_P1;HPM_P2
2022/12/01 00:01:26;;;;;;;9.30;8.33;;;;;;;4.14;87.47;95787.22;4380263;32;20269;-60
2022/12/01 00:03:53;;;;;;;7.57;7.00;;;;;;;4.14;87.81;95779.34;4382131;32;20177;-60
2022/12/01 00:06:20;;;;;;;7.43;6.83;;;;;;;4.04;88.01;95771.31;4364358;32;20279;-61
2022/12/01 00:11:35;;;;;;;6.60;6.07;;;;;;;4.04;88.05;95772.13;4368658;32;20317;-60
2022/12/01 00:14:02;;;;;;;7.93;7.27;;;;;;;3.76;89.48;95766.97;4376107;32;20289;-60
2022/12/01 00:16:29;;;;;;;8.17;7.57;;;;;;;3.52;90.51;95768.16;4374146;32;20267;-60
2022/12/01 00:18:57;;;;;;;7.53;7.07;;;;;;;3.69;89.93;95761.09;4374224;32;20404;-60
2022/12/01 00:21:25;;;;;;;10.90;9.30;;;;;;;3.85;90.06;95755.03;4365163;32;20287;-60
2022/12/01 00:23:53;;;;;;;10.10;9.37;;;;;;;3.74;89.46;95758.56;4369837;32;20265;-60
2022/12/01 00:26:21;;;;;;;15.30;7.83;;;;;;;3.66;90.35;95758.94;4396251;32;20264;-60
2022/12/01 00:28:56;;;;;;;10.17;9.20;;;;;;;3.47;91.49;95761.00;4399392;32;20328;-60
2022/12/01 00:31:22;;;;;;;6.80;6.33;;;;;;;3.36;91.68;95757.41;4380800;32;20275;-60
2022/12/01 00:33:47;;;;;;;8.03;7.33;;;;;;;3.53;91.13;95754.81;4353994;32;20319;-60
2022/12/01 00:36:14;;;;;;;10.47;9.47;;;;;;;3.58;90.58;95756.72;4381330;32;20191;-60
2022/12/01 00:38:40;;;;;;;8.17;7.47;;;;;;;3.34;91.19;95764.72;4319638;32;20185;-60
2022/12/01 00:41:07;;;;;;;8.77;7.97;;;;;;;3.61;90.96;95754.41;4365940;32;20423;-60
2022/12/01 00:43:34;;;;;;;7.20;6.73;;;;;;;3.89;89.84;95760.63;4378329;32;20296;-60
2022/12/01 00:46:00;;;;;;;6.77;6.37;;;;;;;3.85;89.16;95754.25;4359978;32;20277;-60
2022/12/01 00:48:26;;;;;;;6.23;5.67;;;;;;;4.02;88.65;95747.94;4358081;32;20314;-60
2022/12/01 00:50:55;;;;;;;8.03;6.87;;;;;;;4.05;88.61;95744.84;4385950;32;20195;-60
2022/12/01 00:53:25;;;;;;;8.13;7.43;;;;;;;4.09;88.40;95747.78;4366083;32;20277;-60
2022/12/01 00:55:52;;;;;;;8.37;7.57;;;;;;;3.95;88.49;95743.91;4365475;32;20304;-60
2022/12/01 00:58:21;;;;;;;6.20;5.77;;;;;;;4.11;88.13;95749.13;4376306;32;20280;-61
2022/12/01 01:00:59;;;;;;;6.97;6.40;;;;;;;4.14;87.15;95756.53;4377329;32;20284;-61
2022/12/01 01:03:26;;;;;;;6.93;6.43;;;;;;;3.90;88.15;95763.00;4374431;32;20309;-60
2022/12/01 01:05:53;;;;;;;9.37;8.50;;;;;;;4.04;88.19;95760.81;4357174;32;20344;-60
2022/12/01 01:08:21;;;;;;;13.90;8.73;;;;;;;3.68;88.95;95762.94;4371360;32;20284;-61
2022/12/01 01:10:49;;;;;;;7.03;6.47;;;;;;;3.94;88.65;95758.06;4371753;32;20324;-60
2022/12/01 01:13:18;;;;;;;5.43;5.13;;;;;;;3.78;88.47;95768.31;4374154;32;20343;-60
2022/12/01 01:15:44;;;;;;;7.67;6.40;;;;;;;3.70;88.87;95767.94;4374702;32;20311;-60
2022/12/01 01:18:11;;;;;;;6.30;5.70;;;;;;;3.68;88.99;95770.00;4373409;32;20296;-60
2022/12/01 01:20:39;;;;;;;7.37;6.77;;;;;;;3.91;88.01;95766.41;4375208;32;20376;-60
2022/12/01 01:23:07;;;;;;;6.53;5.93;;;;;;;3.76;88.50;95769.59;4373415;32;20322;-60
2022/12/01 01:25:35;;;;;;;6.10;5.63;;;;;;;3.79;88.56;95764.66;4364505;32;20360;-60
2022/12/01 01:28:02;;;;;;;7.43;6.33;;;;;;;3.89;88.15;95768.47;4378753;32;20294;-59
2022/12/01 01:30:30;;;;;;;6.83;6.23;;;;;;;3.94;87.75;95761.50;4369800;32;20273;-60
2022/12/01 01:32:59;;;;;;;6.40;5.80;;;;;;;4.09;87.39;95759.06;4360550;32;20328;-60
2022/12/01 01:35:24;;;;;;;6.57;6.27;;;;;;;3.93;87.40;95766.97;4375738;32;20280;-60
2022/12/01 01:37:51;;;;;;;3.90;3.50;;;;;;;3.76;87.78;95769.59;4371184;32;20295;-60
2022/12/01 01:40:18;;;;;;;5.83;5.53;;;;;;;3.87;87.68;95767.94;4375796;32;20188;-60
2022/12/01 01:42:43;;;;;;;5.50;5.00;;;;;;;3.65;88.44;95760.78;4380341;32;20299;-60
2022/12/01 01:45:20;;;;;;;8.57;5.57;;;;;;;3.64;89.09;95764.44;4372950;32;20281;-60
2022/12/01 01:47:48;;;;;;;5.77;5.37;;;;;;;3.56;89.83;95756.94;4380648;32;20208;-60
2022/12/01 01:50:20;;;;;;;8.77;6.77;;;;;;;3.45;90.28;95760.44;4338579;32;20287;-59
2022/12/01 01:52:53;;;;;;;4.73;4.33;;;;;;;3.59;90.18;95760.91;4338826;32;20281;-60
2022/12/01 01:55:22;;;;;;;7.77;7.07;;;;;;;3.39;90.33;95764.81;4357518;32;20287;-60
2022/12/01 01:57:49;;;;;;;6.47;6.07;;;;;;;3.44;90.46;95762.28;4344692;32;20304;-60
2022/12/01 02:00:20;;;;;;;6.37;5.83;;;;;;;3.56;90.37;95761.41;4372301;32;20358;-60
2022/12/01 02:02:47;;;;;;;5.63;5.33;;;;;;;3.64;89.93;95761.81;4385757;32;20296;-60
2022/12/01 02:05:31;;;;;;;13.27;8.20;;;;;;;3.48;90.57;95767.84;4387358;32;20295;-60
2022/12/01 02:08:00;;;;;;;5.93;5.63;;;;;;;3.51;90.15;95754.25;4381738;32;20346;-59
2022/12/01 02:11:00;;;;;;;9.60;7.87;;;;;;;3.54;90.21;95747.72;4322102;32;20305;-60
2022/12/01 02:14:16;;;;;;;7.07;6.23;;;;;;;3.81;89.76;95746.06;4320541;32;20330;-60
2022/12/01 02:17:24;;;;;;;11.43;6.27;;;;;;;3.89;89.15;95756.16;4362190;32;20276;-60
2022/12/01 02:20:28;;;;;;;8.87;8.27;;;;;;;3.97;88.73;95750.47;4332179;32;20278;-60
2022/12/01 02:23:46;;;;;;;6.90;6.43;;;;;;;3.91;88.70;95743.59;4308085;33;20275;-60
2022/12/01 02:26:52;;;;;;;6.97;6.30;;;;;;;3.75;89.97;95749.63;4277262;33;20275;-60
2022/12/01 02:29:56;;;;;;;6.87;6.17;;;;;;;3.70;90.16;95747.75;4277132;33;20292;-61
2022/12/01 02:33:04;;;;;;;8.27;7.67;;;;;;;3.80;90.40;95744.47;4291089;33;20293;-60
2022/12/01 02:35:40;;;;;;;8.50;7.80;;;;;;;3.76;90.60;95738.09;4315921;32;20328;-59
2022/12/01 02:38:34;;;;;;;10.07;7.50;;;;;;;3.71;91.05;95743.28;4343138;32;20281;-60
2022/12/01 02:41:28;;;;;;;8.53;7.83;;;;;;;3.66;92.03;95749.25;4311742;32;20277;-60
2022/12/01 02:44:27;;;;;;;10.37;7.03;;;;;;;3.80;91.87;95744.47;4321418;32;20301;-60
2022/12/01 02:47:13;;;;;;;7.73;7.03;;;;;;;3.50;92.50;95746.63;4338112;32;20300;-60
2022/12/01 02:49:59;;;;;;;7.00;6.53;;;;;;;3.48;93.06;95740.81;4337049;32;20289;-60
2022/12/01 02:52:25;;;;;;;11.57;10.43;;;;;;;3.74;92.45;95734.94;4369562;32;20292;-60
2022/12/01 02:54:53;;;;;;;10.40;7.23;;;;;;;3.85;92.00;95735.88;4365830;32;20321;-60
2022/12/01 02:57:23;;;;;;;6.80;6.23;;;;;;;3.60;92.45;95739.69;4339744;32;20206;-60
2022/12/01 02:59:53;;;;;;;9.07;8.13;;;;;;;3.68;92.08;95741.16;4346333;32;20314;-60
2022/12/01 03:02:50;;;;;;;8.97;8.23;;;;;;;3.89;92.14;95737.00;4322311;32;20348;-61
2022/12/01 03:05:39;;;;;;;7.90;7.17;;;;;;;4.13;90.89;95726.06;4327645;32;20343;-60
2022/12/01 03:08:20;;;;;;;17.97;7.90;;;;;;;4.08;91.12;95738.31;4353306;32;20273;-60
2022/12/01 03:10:57;;;;;;;10.03;6.67;;;;;;;4.07;90.48;95734.09;4382861;32;20331;-60
2022/12/01 03:13:53;;;;;;;9.10;8.23;;;;;;;3.89;91.37;95727.28;4379651;32;20300;-60
2022/12/01 03:16:53;;;;;;;10.13;9.40;;;;;;;4.02;90.81;95729.56;4362052;32;20276;-60
2022/12/01 03:19:41;;;;;;;9.80;8.80;;;;;;;3.95;91.44;95730.78;4366760;32;20319;-60
2022/12/01 03:22:23;;;;;;;9.97;8.90;;;;;;;3.72;92.55;95731.78;4357409;32;22204;-60
2022/12/01 03:24:52;;;;;;;9.23;8.43;;;;;;;3.70;92.84;95729.38;4359765;32;20261;-60
2022/12/01 03:27:34;;;;;;;10.73;8.50;;;;;;;4.05;91.92;95731.72;4355057;32;20281;-60
2022/12/01 03:30:02;;;;;;;7.67;6.93;;;;;;;3.95;91.14;95720.28;4385225;32;20319;-60
2022/12/01 03:32:48;;;;;;;9.47;7.60;;;;;;;3.68;92.57;95726.19;4358007;32;20284;-60
2022/12/01 03:35:36;;;;;;;7.67;6.97;;;;;;;3.82;92.60;95718.00;4355099;32;20276;-60
2022/12/01 03:38:27;;;;;;;11.60;9.63;;;;;;;3.83;92.45;95720.38;4355226;32;20307;-60
2022/12/01 03:41:01;;;;;;;9.67;8.70;;;;;;;3.90;91.90;95723.63;4373954;32;20323;-60
2022/12/01 03:43:38;;;;;;;9.03;8.10;;;;;;;3.99;92.05;95730.03;4388727;32;20291;-60
2022/12/01 03:46:40;;;;;;;9.10;8.27;;;;;;;3.95;91.71;95726.31;4375609;32;20329;-60
2022/12/01 03:49:07;;;;;;;8.60;7.33;;;;;;;3.85;91.89;95725.37;4371134;32;20389;-60
2022/12/01 03:51:55;;;;;;;8.07;7.40;;;;;;;3.98;92.10;95733.72;4380831;32;20283;-60
2022/12/01 03:54:52;;;;;;;10.57;7.07;;;;;;;4.23;90.78;95733.25;4387124;32;20291;-60
2022/12/01 03:57:45;;;;;;;8.47;7.73;;;;;;;4.29;90.72;95729.66;4384954;32;20350;-60
2022/12/01 04:00:15;;;;;;;15.07;8.33;;;;;;;4.29;89.96;95734.13;4386387;32;20269;-60
2022/12/01 04:02:41;;;;;;;14.10;6.20;;;;;;;4.14;90.70;95727.66;4335581;32;20356;-60
2022/12/01 04:05:08;;;;;;;9.93;8.63;;;;;;;4.09;90.98;95732.03;4377310;32;21743;-60
2022/12/01 04:07:38;;;;;;;8.77;7.93;;;;;;;4.05;91.24;95734.34;4369352;32;20193;-60
2022/12/01 04:10:07;;;;;;;9.90;8.23;;;;;;;4.22;90.96;95736.12;4370294;32;20272;-60
2022/12/01 04:12:35;;;;;;;13.47;10.30;;;;;;;4.12;91.13;95732.34;4359277;32;20280;-60
2022/12/01 04:15:10;;;;;;;8.07;7.53;;;;;;;4.11;91.10;95740.47;4371358;32;20277;-60
2022/12/01 04:17:38;;;;;;;11.03;9.53;;;;;;;3.97;92.22;95742.63;4370691;32;20332;-60
2022/12/01 04:20:06;;;;;;;9.97;7.97;;;;;;;3.75;92.57;95741.75;4367267;32;20326;-60
2022/12/01 04:22:39;;;;;;;13.47;9.93;;;;;;;3.82;93.04;95746.84;4351263;32;20329;-60
2022/12/01 04:25:06;;;;;;;8.10;7.43;;;;;;;3.79;93.02;95742.88;4369521;32;20347;-60
2022/12/01 04:27:32;;;;;;;9.33;7.03;;;;;;;3.95;92.43;95736.81;4378253;32;20347;-60
2022/12/01 04:29:59;;;;;;;7.47;6.77;;;;;;;4.09;92.12;95727.56;4369418;32;20290;-60
2022/12/01 04:32:27;;;;;;;11.40;8.77;;;;;;;4.30;91.25;95735.72;4349945;32;20281;-60
2022/12/01 04:34:55;;;;;;;12.20;9.13;;;;;;;4.06;91.71;95735.13;4363368;32;20297;-60
2022/12/01 04:37:21;;;;;;;9.93;7.53;;;;;;;4.00;92.11;95729.00;4369096;32;20276;-60
2022/12/01 04:39:48;;;;;;;7.77;7.00;;;;;;;4.07;92.41;95732.28;4367097;32;20315;-60
2022/12/01 04:42:14;;;;;;;7.07;6.37;;;;;;;4.02;91.83;95729.56;4370421;32;20290;-60
2022/12/01 04:44:41;;;;;;;12.20;8.00;;;;;;;3.91;92.39;95730.47;4345292;32;20272;-60
2022/12/01 04:47:08;;;;;;;8.43;7.70;;;;;;;3.95;92.72;95730.78;4349877;32;20413;-60
2022/12/01 04:49:36;;;;;;;9.40;7.60;;;;;;;3.71;93.25;95730.97;4374141;32;20304;-60
2022/12/01 04:52:07;;;;;;;8.30;7.77;;;;;;;3.75;93.44;95726.00;4358019;32;20303;-60
2022/12/01 04:54:33;;;;;;;7.37;6.80;;;;;;;3.96;93.07;95722.66;4353139;32;20352;-60
2022/12/01 04:57:00;;;;;;;7.70;7.07;;;;;;;3.93;92.84;95728.41;4356502;32;20283;-60
2022/12/01 04:59:25;;;;;;;10.73;9.63;;;;;;;3.81;92.75;95735.56;4378793;32;20346;-60
2022/12/01 05:01:53;;;;;;;9.50;8.57;;;;;;;3.82;92.84;95726.66;4356200;32;20331;-60
2022/12/01 05:04:20;;;;;;;9.23;6.97;;;;;;;3.83;93.23;95723.00;4367631;32;20184;-60
2022/12/01 05:06:53;;;;;;;8.17;7.47;;;;;;;3.90;92.29;95734.13;4357473;32;20300;-61
2022/12/01 05:09:21;;;;;;;13.40;7.20;;;;;;;3.97;92.02;95733.94;4353701;32;20276;-61
2022/12/01 05:11:46;;;;;;;9.97;8.80;;;;;;;4.18;91.83;95740.25;4377490;32;20276;-60
2022/12/01 05:14:14;;;;;;;7.73;7.03;;;;;;;4.27;90.80;95739.63;4385840;32;20303;-60
2022/12/01 05:16:41;;;;;;;5.80;5.40;;;;;;;4.25;90.30;95738.28;4376286;32;20180;-60
2022/12/01 05:21:54;;;;;;;7.33;5.80;;;;;;;4.10;90.13;95739.66;4359279;32;20280;-60
2022/12/01 05:24:20;;;;;;;6.77;6.27;;;;;;;4.12;90.29;95740.22;4362172;32;20322;-60
2022/12/01 05:26:47;;;;;;;6.23;5.77;;;;;;;4.25;89.51;95744.31;4367254;32;20332;-60
2022/12/01 05:29:13;;;;;;;8.33;5.90;;;;;;;4.30;89.70;95746.22;4382968;32;20287;-60
2022/12/01 05:31:39;;;;;;;7.77;6.27;;;;;;;4.44;89.02;95739.56;4365439;32;20293;-60
2022/12/01 05:34:07;;;;;;;8.47;7.73;;;;;;;4.52;88.12;95735.72;4340226;32;20390;-60
2022/12/01 05:36:33;;;;;;;8.03;7.30;;;;;;;4.56;88.23;95736.84;4383574;32;20365;-60
2022/12/01 05:39:11;;;;;;;9.20;7.80;;;;;;;4.60;88.08;95738.69;4326012;32;20435;-59
2022/12/01 05:41:38;;;;;;;6.57;5.97;;;;;;;4.61;87.83;95744.75;4361994;32;20276;-59
2022/12/01 05:44:05;;;;;;;10.00;7.27;;;;;;;4.74;87.37;95745.19;4376731;32;20281;-60
2022/12/01 05:46:31;;;;;;;6.10;5.77;;;;;;;4.83;86.98;95738.44;4348948;32;20315;-60
2022/12/01 05:48:59;;;;;;;6.97;6.30;;;;;;;4.73;87.01;95745.44;4367025;32;20289;-60
2022/12/01 05:51:26;;;;;;;7.90;6.53;;;;;;;4.75;86.94;95741.53;4374619;32;20269;-60
2022/12/01 05:53:52;;;;;;;6.40;5.90;;;;;;;4.62;87.55;95738.47;4381101;32;20264;-60
2022/12/01 05:56:22;;;;;;;8.93;7.90;;;;;;;4.70;87.78;95733.59;4364402;32;20285;-61
2022/12/01 05:58:49;;;;;;;6.90;6.33;;;;;;;4.57;87.90;95728.72;4369412;32;20369;-60
2022/12/01 06:01:16;;;;;;;6.77;5.90;;;;;;;4.54;88.13;95744.97;4338150;32;20292;-61
2022/12/01 06:03:43;;;;;;;6.13;5.53;;;;;;;4.59;87.69;95747.63;4360366;32;20352;-60
2022/12/01 06:06:10;;;;;;;6.80;6.30;;;;;;;4.50;88.42;95746.47;4381990;32;20276;-60
2022/12/01 06:08:36;;;;;;;6.93;6.23;;;;;;;4.49;88.26;95747.50;4365984;32;20429;-60
2022/12/01 06:11:08;;;;;;;6.37;5.87;;;;;;;4.44;88.43;95745.63;4373204;32;20310;-59
2022/12/01 06:13:38;;;;;;;7.77;7.07;;;;;;;4.41;88.22;95740.84;4369554;32;20309;-60
2022/12/01 06:16:06;;;;;;;5.90;5.43;;;;;;;4.42;89.05;95747.69;4383579;32;20283;-60
2022/12/01 06:18:36;;;;;;;7.33;6.67;;;;;;;4.50;88.54;95746.47;4369175;32;20290;-60
2022/12/01 06:21:03;;;;;;;7.73;7.00;;;;;;;4.39;88.94;95744.75;4365767;32;20317;-60
2022/12/01 06:23:29;;;;;;;16.87;6.13;;;;;;;4.41;88.98;95745.31;4348129;32;20277;-60
2022/12/01 06:26:00;;;;;;;11.80;6.60;;;;;;;4.12;89.66;95753.34;4376644;32;20264;-60
2022/12/01 06:28:27;;;;;;;7.33;6.60;;;;;;;4.21;89.36;95758.16;4370001;32;20303;-60
2022/12/01 06:30:54;;;;;;;6.33;5.80;;;;;;;4.09;90.23;95753.03;4364121;32;20292;-60
2022/12/01 06:33:19;;;;;;;5.07;4.60;;;;;;;4.43;88.80;95758.97;4362404;32;20289;-60
2022/12/01 06:35:44;;;;;;;6.90;6.23;;;;;;;4.32;88.92;95757.28;4347035;32;20323;-61
2022/12/01 06:38:11;;;;;;;7.50;6.83;;;;;;;4.39;88.76;95763.13;4375504;32;20244;-60
2022/12/01 06:40:36;;;;;;;6.53;6.03;;;;;;;4.33;88.57;95753.63;4390067;32;20240;-60
2022/12/01 06:43:02;;;;;;;5.87;5.43;;;;;;;4.21;89.02;95760.78;4361171;32;20299;-60
2022/12/01 06:45:30;;;;;;;6.50;6.07;;;;;;;4.58;87.89;95761.78;4370794;32;20188;-60
2022/12/01 06:47:56;;;;;;;7.07;6.57;;;;;;;4.52;87.42;95765.41;4369006;32;20273;-60
2022/12/01 06:50:23;;;;;;;11.37;8.27;;;;;;;4.62;87.56;95770.78;4356859;32;20300;-60
2022/12/01 06:52:49;;;;;;;6.10;5.70;;;;;;;4.48;88.03;95765.09;4350508;32;20312;-60
2022/12/01 06:55:18;;;;;;;7.47;5.90;;;;;;;4.54;87.64;95765.19;4352196;32;20189;-61
2022/12/01 06:57:48;;;;;;;9.50;6.63;;;;;;;4.61;87.35;95773.66;4377823;32;20287;-60
2022/12/01 07:00:16;;;;;;;23.40;7.07;;;;;;;4.82;86.75;95773.66;4353746;32;20281;-60
2022/12/01 07:02:43;;;;;;;7.50;6.47;;;;;;;4.64;86.79;95773.16;4378291;32;20321;-60
2022/12/01 07:05:09;;;;;;;5.90;5.47;;;;;;;4.27;88.58;95775.59;4363372;32;20361;-60
2022/12/01 07:07:40;;;;;;;10.07;8.30;;;;;;;4.27;88.71;95776.38;4358441;32;20347;-60
2022/12/01 07:10:28;;;;;;;7.27;6.57;;;;;;;4.18;88.94;95774.41;4357189;32;20351;-60
2022/12/01 07:12:57;;;;;;;8.03;6.33;;;;;;;4.40;88.51;95776.03;4342375;32;20319;-60
2022/12/01 07:15:27;;;;;;;5.60;4.97;;;;;;;4.50;88.29;95767.50;4377961;32;20272;-60
2022/12/01 07:17:55;;;;;;;5.80;5.40;;;;;;;4.67;87.76;95768.22;4371557;32;20280;-59
2022/12/01 07:20:21;;;;;;;5.97;5.43;;;;;;;4.68;87.42;95771.66;4375203;32;20272;-60
2022/12/01 07:22:48;;;;;;;21.07;7.27;;;;;;;4.60;87.48;95775.47;4373159;32;20260;-60
2022/12/01 07:25:16;;;;;;;7.00;6.30;;;;;;;4.73;86.82;95769.88;4378342;32;20268;-60
2022/12/01 07:27:43;;;;;;;8.00;6.77;;;;;;;4.62;87.33;95776.03;4363512;32;20367;-60
2022/12/01 07:30:10;;;;;;;7.87;7.00;;;;;;;4.52;87.77;95770.66;4380139;32;20277;-60
2022/12/01 07:32:48;;;;;;;7.80;5.90;;;;;;;4.65;87.70;95777.38;4359509;32;20438;-60
2022/12/01 07:35:16;;;;;;;5.67;5.13;;;;;;;4.73;86.95;95785.66;4353192;32;20272;-60
2022/12/01 07:37:41;;;;;;;5.43;5.03;;;;;;;4.57;87.21;95783.88;4378923;32;20281;-60
2022/12/01 07:40:09;;;;;;;15.77;6.87;;;;;;;4.69;87.20;95789.78;4347740;32;20342;-60
2022/12/01 07:42:34;;;;;;;6.93;4.70;;;;;;;4.72;86.80;95778.81;4349036;32;20226;-60
2022/12/01 07:45:02;;;;;;;6.37;5.67;;;;;;;4.64;86.82;95784.47;4347828;32;20304;-60
2022/12/01 07:47:28;;;;;;;9.67;6.00;;;;;;;4.86;85.96;95786.31;4370495;32;20193;-60
2022/12/01 07:49:55;;;;;;;5.70;5.23;;;;;;;4.97;85.45;95785.41;4351857;32;20294;-60
2022/12/01 07:52:20;;;;;;;6.33;5.87;;;;;;;4.99;85.24;95791.22;4346173;32;20281;-61
2022/12/01 07:54:47;;;;;;;5.93;5.37;;;;;;;4.86;85.69;95789.72;4352378;32;20293;-60
2022/12/01 07:57:14;;;;;;;7.97;5.93;;;;;;;5.04;92.49;95786.78;4369880;32;20201;-61
2022/12/01 07:59:41;;;;;;;15.17;5.33;;;;;;;6.00;100.00;95789.53;4367639;32;20320;-60
2022/12/01 08:02:09;;;;;;;7.83;5.47;;;;;;;6.68;100.00;95785.19;4364055;32;20306;-61
2022/12/01 08:04:37;;;;;;;4.40;4.20;;;;;;;6.01;88.54;95793.75;4352016;32;20281;-61
2022/12/01 08:07:02;;;;;;;7.23;6.37;;;;;;;5.70;83.64;95799.78;4357771;32;20300;-60
2022/12/01 08:09:30;;;;;;;6.63;6.13;;;;;;;5.46;83.80;95794.84;4361853;32;20292;-61
2022/12/01 08:11:57;;;;;;;5.27;4.87;;;;;;;5.11;85.23;95802.37;4370812;32;20359;-60
2022/12/01 08:14:23;;;;;;;6.07;5.53;;;;;;;5.25;85.01;95802.78;4365617;32;20277;-61
2022/12/01 08:16:51;;;;;;;6.07;5.57;;;;;;;4.99;85.62;95804.34;4362123;32;20330;-60
2022/12/01 08:19:16;;;;;;;5.67;5.27;;;;;;;4.81;86.32;95808.84;4373345;32;20283;-63
2022/12/01 08:21:44;;;;;;;4.70;3.37;;;;;;;4.77;86.25;95806.97;4331871;32;20280;-49
2022/12/01 08:24:10;;;;;;;5.13;4.70;;;;;;;8.72;100.00;95784.31;4325158;32;20236;-48
2022/12/01 08:26:38;;;;;;;14.60;5.93;;;;;;;10.87;99.29;95793.87;4346976;32;20379;-49
2022/12/01 08:29:06;;;;;;;6.47;5.87;;;;;;;12.33;78.77;95782.25;4357557;32;20281;-53
2022/12/01 08:31:39;;;;;;;5.83;5.43;;;;;;;12.90;69.72;95780.13;4342576;32;20196;-50
2022/12/01 08:34:07;;;;;;;7.00;6.30;;;;;;;13.85;62.69;95789.09;4367350;32;20227;-52
2022/12/01 08:36:34;;;;;;;8.43;5.40;;;;;;;14.08;60.80;95774.66;4363637;32;20258;-49
2022/12/01 08:39:01;;;;;;;4.27;3.97;;;;;;;14.36;56.95;95790.50;4359998;32;20204;-48
2022/12/01 08:41:27;;;;;;;7.13;6.30;;;;;;;14.71;55.04;95794.19;4341381;32;20246;-53
2022/12/01 08:43:58;;;;;;;9.40;7.30;;;;;;;14.69;54.50;95799.06;4369062;32;20181;-48
2022/12/01 08:46:26;;;;;;;10.67;7.27;;;;;;;14.83;53.69;95802.41;4341128;32;20204;-50
2022/12/01 08:48:53;;;;;;;9.87;8.03;;;;;;;14.79;51.68;95796.88;4373312;32;20180;-50
2022/12/01 08:51:20;;;;;;;7.40;6.23;;;;;;;14.71;52.00;95800.31;4355790;32;20188;-51
2022/12/01 08:53:48;;;;;;;7.63;7.00;;;;;;;14.61;52.59;95805.12;4368671;32;20184;-49
2022/12/01 08:56:25;;;;;;;6.47;5.97;;;;;;;14.64;51.49;95796.50;4289005;32;20218;-48
2022/12/01 08:58:53;;;;;;;6.90;6.23;;;;;;;14.34;52.18;95796.16;4359261;32;20247;-49
2022/12/01 09:01:19;;;;;;;10.53;6.40;;;;;;;14.37;52.02;95800.87;4366735;32;20196;-50
2022/12/01 09:03:46;;;;;;;5.13;4.73;;;;;;;14.29;51.83;95793.63;4364194;32;20196;-51
2022/12/01 09:06:21;;;;;;;6.47;5.83;;;;;;;14.18;52.04;95799.50;4352825;32;20246;-52
2022/12/01 09:08:46;;;;;;;5.20;4.90;;;;;;;14.46;68.74;95800.19;4346494;32;20180;-62
2022/12/01 09:11:19;;;;;;;7.67;6.97;;;;;;;13.08;55.67;95805.91;4382226;32;20197;-65
2022/12/01 09:13:48;;;;;;;7.50;6.90;;;;;;;10.67;57.82;95810.81;4375911;32;20220;-64
2022/12/01 09:16:18;;;;;;;8.57;7.10;;;;;;;9.02;64.18;95811.69;4375841;32;20221;-64
2022/12/01 09:18:48;;;;;;;10.20;7.53;;;;;;;8.24;67.96;95810.28;4384185;32;20184;-63
2022/12/01 09:21:18;;;;;;;6.87;6.37;;;;;;;7.67;70.24;95812.41;4377529;32;20199;-64
2022/12/01 09:23:46;;;;;;;7.10;6.60;;;;;;;7.03;72.96;95818.03;4356698;32;20189;-64
2022/12/01 09:26:18;;;;;;;7.63;6.90;;;;;;;6.35;75.87;95819.78;4371697;32;20188;-63
2022/12/01 09:28:52;;;;;;;7.80;6.13;;;;;;;6.35;76.93;95819.78;4377177;32;20234;-64
2022/12/01 09:31:19;;;;;;;6.37;5.77;;;;;;;6.24;77.38;95824.19;4379334;32;20228;-63
2022/12/01 09:33:47;;;;;;;5.27;4.87;;;;;;;6.44;76.68;95810.38;4356838;32;20281;-63
2022/12/01 09:36:14;;;;;;;6.03;5.47;;;;;;;6.58;77.25;95808.87;4363346;32;20303;-62
2022/12/01 09:38:42;;;;;;;9.93;6.37;;;;;;;6.07;77.37;95816.44;4346676;32;20277;-64
2022/12/01 09:41:33;;;;;;;7.60;6.83;;;;;;;6.07;78.51;95821.69;4375025;32;20279;-62
2022/12/01 09:44:23;;;;;;;8.43;5.10;;;;;;;6.02;78.11;95813.78;4365388;32;20327;-61
2022/12/01 09:47:27;;;;;;;6.23;4.50;;;;;;;5.79;78.92;95804.34;4319983;32;20318;-62
2022/12/01 09:50:20;;;;;;;9.07;5.53;;;;;;;5.87;79.02;95811.78;4377100;32;20272;-65
2022/12/01 09:52:52;;;;;;;4.10;3.83;;;;;;;5.52;80.17;95809.63;4327010;32;20327;-62
2022/12/01 09:55:20;;;;;;;5.17;4.70;;;;;;;5.83;79.06;95800.16;4357216;32;20323;-64
2022/12/01 09:57:49;;;;;;;5.40;5.03;;;;;;;5.69;79.40;95798.19;4376189;32;20286;-63
2022/12/01 10:00:26;;;;;;;7.37;5.10;;;;;;;5.96;78.43;95796.34;4356965;32;20315;-64
2022/12/01 10:03:29;;;;;;;9.17;6.07;;;;;;;5.74;78.49;95795.59;4353240;32;20281;-62
2022/12/01 10:06:06;;;;;;;5.17;4.23;;;;;;;5.89;78.86;95787.06;4343952;32;20288;-61
2022/12/01 10:08:38;;;;;;;5.77;5.13;;;;;;;6.01;78.31;95790.34;4377548;32;20292;-61
2022/12/01 10:11:27;;;;;;;4.17;3.87;;;;;;;5.89;78.80;95787.84;4357167;32;20367;-61
2022/12/01 10:13:55;;;;;;;7.10;4.93;;;;;;;5.84;78.65;95778.03;4343886;32;20288;-61
2022/12/01 10:17:02;;;;;;;4.23;3.93;;;;;;;5.58;79.45;95778.91;4363890;32;20276;-62
2022/12/01 10:19:41;;;;;;;4.50;4.20;;;;;;;5.49;80.37;95777.75;4345751;32;20297;-63
2022/12/01 10:22:45;;;;;;;5.90;4.47;;;;;;;5.87;79.41;95779.37;4351813;32;20280;-61
2022/12/01 10:25:30;;;;;;;3.57;3.47;;;;;;;5.72;79.21;95774.00;4366934;32;20294;-66
2022/12/01 10:28:31;;;;;;;3.80;3.60;;;;;;;5.95;78.58;95775.53;4374631;32;20293;-65
2022/12/01 10:31:10;;;;;;;4.23;3.90;;;;;;;5.71;79.14;95775.06;4359691;32;20335;-61
2022/12/01 10:34:05;;;;;;;5.47;5.00;;;;;;;5.86;79.08;95765.44;4358699;32;20285;-62
2022/12/01 10:36:41;;;;;;;4.63;4.23;;;;;;;5.75;78.77;95770.87;4338712;32;20347;-62
2022/12/01 10:39:34;;;;;;;5.83;5.43;;;;;;;5.45;79.79;95772.19;4357946;32;20283;-62
2022/12/01 10:42:18;;;;;;;4.50;4.17;;;;;;;5.40;80.24;95768.75;4328700;32;20293;-62
2022/12/01 10:44:45;;;;;;;5.40;4.73;;;;;;;5.02;82.20;95761.78;4376948;32;20276;-64
2022/12/01 10:47:23;;;;;;;6.37;5.73;;;;;;;5.21;81.89;95762.22;4386365;32;20275;-63
2022/12/01 10:49:50;;;;;;;3.83;3.57;;;;;;;5.51;80.64;95759.88;4360441;32;20271;-62
2022/12/01 10:52:38;;;;;;;4.23;3.83;;;;;;;5.47;80.52;95758.78;4337015;32;20276;-61
2022/12/01 10:55:25;;;;;;;5.30;4.90;;;;;;;5.57;79.73;95752.84;4367986;32;20278;-61
2022/12/01 10:57:56;;;;;;;5.20;4.33;;;;;;;5.40;80.60;95756.34;4363602;32;20299;-63
2022/12/01 11:00:41;;;;;;;5.90;3.93;;;;;;;5.41;80.83;95746.63;4370043;32;20296;-63
2022/12/01 11:03:22;;;;;;;5.03;4.63;;;;;;;5.45;80.11;95755.63;4371305;32;20279;-64
2022/12/01 11:05:59;;;;;;;5.30;4.43;;;;;;;5.40;79.71;95753.72;4346319;32;20302;-65
2022/12/01 11:08:37;;;;;;;4.83;4.23;;;;;;;5.27;81.02;95743.62;4352607;32;20391;-62
2022/12/01 11:11:26;;;;;;;6.30;5.70;;;;;;;5.28;81.14;95745.22;4377454;32;20276;-67
2022/12/01 11:13:53;;;;;;;10.23;5.33;;;;;;;5.47;80.30;95738.53;4330092;32;20301;-63
2022/12/01 11:16:53;;;;;;;3.90;3.70;;;;;;;5.52;79.82;95735.97;4348764;32;20280;-66
2022/12/01 11:19:42;;;;;;;3.30;2.87;;;;;;;5.21;81.24;95746.44;4371934;32;20355;-62
2022/12/01 11:22:30;;;;;;;5.70;4.67;;;;;;;5.37;80.81;95741.09;4336157;32;20405;-64
2022/12/01 11:25:03;;;;;;;4.10;3.73;;;;;;;5.50;80.71;95745.16;4368685;32;20268;-61
2022/12/01 11:27:47;;;;;;;5.60;5.20;;;;;;;5.35;81.06;95743.19;4355173;32;20280;-60
2022/12/01 11:30:41;;;;;;;4.93;4.43;;;;;;;5.36;81.54;95741.34;4359589;32;20281;-62
2022/12/01 11:33:14;;;;;;;6.23;5.63;;;;;;;5.48;80.95;95732.22;4375755;32;20281;-62
2022/12/01 11:35:48;;;;;;;5.50;4.17;;;;;;;5.31;81.42;95734.19;4359835;32;20299;-62
2022/12/01 11:38:29;;;;;;;5.23;4.83;;;;;;;5.36;81.31;95731.63;4366694;32;20283;-62
2022/12/01 11:40:57;;;;;;;5.53;5.03;;;;;;;5.19;82.28;95733.56;4286254;32;20297;-62
2022/12/01 11:43:45;;;;;;;4.13;3.93;;;;;;;5.23;81.58;95734.63;4373581;32;20277;-62
2022/12/01 11:46:12;;;;;;;8.07;5.47;;;;;;;5.34;81.89;95733.69;4365852;32;20277;-62
2022/12/01 11:48:39;;;;;;;5.43;5.03;;;;;;;5.21;81.67;95730.66;4367535;32;20320;-62
2022/12/01 11:51:36;;;;;;;5.47;5.10;;;;;;;5.03;82.16;95737.06;4375360;32;20284;-62
2022/12/01 11:54:25;;;;;;;5.93;4.83;;;;;;;5.11;82.34;95728.75;4362650;32;20284;-62
2022/12/01 11:56:55;;;;;;;5.27;4.87;;;;;;;5.14;82.23;95728.25;4364372;32;20336;-62
2022/12/01 11:59:25;;;;;;;5.43;5.03;;;;;;;5.37;81.27;95729.78;4375853;32;20299;-62
2022/12/01 12:02:19;;;;;;;6.17;4.83;;;;;;;5.51;81.29;95737.00;4377083;32;20295;-62
2022/12/01 12:05:13;;;;;;;8.10;5.70;;;;;;;5.50;80.83;95724.87;4369045;32;20276;-62
2022/12/01 12:08:14;;;;;;;4.43;3.43;;;;;;;5.23;81.61;95731.22;4382359;32;20330;-62
2022/12/01 12:11:37;;;;;;;6.10;5.10;;;;;;;5.74;80.41;95727.97;4330341;32;20275;-62
2022/12/01 12:14:31;;;;;;;6.73;4.83;;;;;;;5.93;78.72;95723.13;4275299;33;20287;-62
2022/12/01 12:17:23;;;;;;;5.23;4.80;;;;;;;5.97;78.43;95726.06;4266219;33;20378;-62